EJU38JM LFMN-LIRN
Flight info
| Callsign | EJU38JM |
|---|---|
| Flight time | 1h 8m |
| Altitude | 33000 |
| Route | SODRI DCT RAPUR DCT RATAP DCT BTA DCT DOKAR DCT SUNEV DCT ELVIN DCT RIFFI DCT PNZ |
| Aircraft | A320/M-SDE2E3FGHIJ1RWXYZ/LB1 |
Departure
| Time | 2026-05-05 17:53 |
|---|---|
| Airport | Nice-Côte d'Azur Airport (LFMN) |
Arrival
| Time | 2026-05-05 19:01 |
|---|---|
| Airport | Naples International Airport (LIRN) |
| Time | Latitude | Longitude | Altitude | Speed | Heading |
|---|---|---|---|---|---|
| 2026-05-05 17:26 | 43.65870 | 7.20607 | 24 ft | 0 kts | 339° |
| 2026-05-05 17:45 | 43.65852 | 7.20616 | 21 ft | 4 kts | 339° |
| 2026-05-05 17:45 | 43.65827 | 7.20629 | 22 ft | 4 kts | 339° |
| 2026-05-05 17:45 | 43.65806 | 7.20640 | 24 ft | 4 kts | 323° |
| 2026-05-05 17:46 | 43.65794 | 7.20665 | 23 ft | 4 kts | 258° |
| 2026-05-05 17:46 | 43.65806 | 7.20696 | 23 ft | 4 kts | 225° |
| 2026-05-05 17:46 | 43.65819 | 7.20714 | 21 ft | 0 kts | 225° |
| 2026-05-05 17:48 | 43.65804 | 7.20693 | 23 ft | 6 kts | 224° |
| 2026-05-05 17:48 | 43.65765 | 7.20640 | 21 ft | 9 kts | 225° |
| 2026-05-05 17:49 | 43.65709 | 7.20564 | 21 ft | 14 kts | 224° |
| 2026-05-05 17:49 | 43.65637 | 7.20465 | 21 ft | 14 kts | 225° |
| 2026-05-05 17:49 | 43.65571 | 7.20374 | 21 ft | 13 kts | 225° |
| 2026-05-05 17:49 | 43.65512 | 7.20292 | 21 ft | 11 kts | 225° |
| 2026-05-05 17:50 | 43.65460 | 7.20220 | 21 ft | 10 kts | 225° |
| 2026-05-05 17:50 | 43.65397 | 7.20178 | 21 ft | 12 kts | 181° |
| 2026-05-05 17:50 | 43.65314 | 7.20248 | 21 ft | 16 kts | 137° |
| 2026-05-05 17:50 | 43.65224 | 7.20367 | 20 ft | 20 kts | 135° |
| 2026-05-05 17:51 | 43.65114 | 7.20472 | 21 ft | 20 kts | 172° |
| 2026-05-05 17:51 | 43.65003 | 7.20375 | 21 ft | 19 kts | 224° |
| 2026-05-05 17:51 | 43.64914 | 7.20255 | 21 ft | 17 kts | 221° |
| 2026-05-05 17:51 | 43.64814 | 7.20253 | 23 ft | 16 kts | 141° |
| 2026-05-05 17:52 | 43.64776 | 7.20377 | 26 ft | 15 kts | 70° |
| 2026-05-05 17:52 | 43.64896 | 7.20557 | 24 ft | 53 kts | 45° |
| 2026-05-05 17:52 | 43.65323 | 7.21142 | 22 ft | 117 kts | 44° |
| 2026-05-05 17:52 | 43.66025 | 7.22111 | 43 ft | 164 kts | 48° |
| 2026-05-05 17:53 | 43.66780 | 7.23281 | 615 ft | 167 kts | 63° |
| 2026-05-05 17:53 | 43.67015 | 7.24861 | 1160 ft | 174 kts | 98° |
| 2026-05-05 17:53 | 43.66517 | 7.26378 | 1734 ft | 184 kts | 128° |
| 2026-05-05 17:53 | 43.65521 | 7.27656 | 2058 ft | 207 kts | 140° |
| 2026-05-05 17:54 | 43.64343 | 7.28944 | 2621 ft | 217 kts | 142° |
| 2026-05-05 17:54 | 43.63182 | 7.30244 | 3385 ft | 219 kts | 141° |
| 2026-05-05 17:54 | 43.62017 | 7.31628 | 4129 ft | 222 kts | 140° |
| 2026-05-05 17:54 | 43.60857 | 7.33064 | 4877 ft | 225 kts | 143° |
| 2026-05-05 17:55 | 43.59461 | 7.33987 | 5549 ft | 224 kts | 173° |
| 2026-05-05 17:55 | 43.57923 | 7.33940 | 6309 ft | 222 kts | 190° |
| 2026-05-05 17:55 | 43.56387 | 7.33663 | 7037 ft | 223 kts | 190° |
| 2026-05-05 17:55 | 43.54837 | 7.33398 | 7760 ft | 225 kts | 190° |
| 2026-05-05 17:56 | 43.53274 | 7.33140 | 8483 ft | 228 kts | 190° |
| 2026-05-05 17:56 | 43.51690 | 7.32884 | 9204 ft | 231 kts | 189° |
| 2026-05-05 17:56 | 43.50003 | 7.33094 | 9517 ft | 262 kts | 162° |
| 2026-05-05 17:56 | 43.48479 | 7.34662 | 9848 ft | 291 kts | 130° |
| 2026-05-05 17:57 | 43.47297 | 7.37047 | 10178 ft | 313 kts | 126° |
| 2026-05-05 17:57 | 43.46099 | 7.39689 | 10423 ft | 335 kts | 124° |
| 2026-05-05 17:57 | 43.44877 | 7.42482 | 10984 ft | 344 kts | 124° |
| 2026-05-05 17:57 | 43.43639 | 7.45318 | 11695 ft | 348 kts | 125° |
| 2026-05-05 17:58 | 43.42373 | 7.48181 | 12412 ft | 352 kts | 126° |
| 2026-05-05 17:58 | 43.41081 | 7.51062 | 13139 ft | 355 kts | 127° |
| 2026-05-05 17:58 | 43.39771 | 7.53956 | 13836 ft | 359 kts | 127° |
| 2026-05-05 17:58 | 43.38436 | 7.56884 | 14472 ft | 362 kts | 127° |
| 2026-05-05 17:59 | 43.37093 | 7.59817 | 15092 ft | 364 kts | 128° |
| 2026-05-05 17:59 | 43.35737 | 7.62776 | 15730 ft | 367 kts | 128° |
| 2026-05-05 17:59 | 43.34372 | 7.65757 | 16352 ft | 370 kts | 128° |
| 2026-05-05 17:59 | 43.32997 | 7.68759 | 16975 ft | 372 kts | 128° |
| 2026-05-05 18:00 | 43.31615 | 7.71775 | 17608 ft | 375 kts | 128° |
| 2026-05-05 18:00 | 43.30220 | 7.74818 | 18221 ft | 378 kts | 128° |
| 2026-05-05 18:00 | 43.28816 | 7.77881 | 18754 ft | 380 kts | 128° |
| 2026-05-05 18:00 | 43.27419 | 7.80923 | 19272 ft | 383 kts | 128° |
| 2026-05-05 18:01 | 43.25974 | 7.84065 | 19788 ft | 386 kts | 128° |
| 2026-05-05 18:01 | 43.24533 | 7.87198 | 20310 ft | 390 kts | 128° |
| 2026-05-05 18:01 | 43.23098 | 7.90313 | 20817 ft | 393 kts | 129° |
| 2026-05-05 18:01 | 43.21633 | 7.93487 | 21333 ft | 396 kts | 129° |
| 2026-05-05 18:02 | 43.20153 | 7.96692 | 21842 ft | 399 kts | 129° |
| 2026-05-05 18:02 | 43.18660 | 7.99921 | 22317 ft | 403 kts | 128° |
| 2026-05-05 18:02 | 43.17152 | 8.03177 | 22819 ft | 406 kts | 129° |
| 2026-05-05 18:02 | 43.15635 | 8.06447 | 23310 ft | 409 kts | 129° |
| 2026-05-05 18:03 | 43.14101 | 8.09747 | 23735 ft | 412 kts | 129° |
| 2026-05-05 18:03 | 43.12556 | 8.13067 | 24132 ft | 415 kts | 129° |
| 2026-05-05 18:03 | 43.11000 | 8.16412 | 24510 ft | 418 kts | 129° |
| 2026-05-05 18:03 | 43.09432 | 8.19784 | 24875 ft | 421 kts | 129° |
| 2026-05-05 18:04 | 43.07854 | 8.23174 | 25223 ft | 425 kts | 129° |
| 2026-05-05 18:04 | 43.06260 | 8.26590 | 25572 ft | 428 kts | 129° |
| 2026-05-05 18:04 | 43.04650 | 8.30035 | 25917 ft | 431 kts | 130° |
| 2026-05-05 18:04 | 43.03029 | 8.33494 | 26244 ft | 434 kts | 130° |
| 2026-05-05 18:05 | 43.01398 | 8.36983 | 26560 ft | 437 kts | 129° |
| 2026-05-05 18:05 | 42.99826 | 8.40561 | 26909 ft | 442 kts | 127° |
| 2026-05-05 18:05 | 42.98334 | 8.44257 | 27237 ft | 446 kts | 125° |
| 2026-05-05 18:05 | 42.96891 | 8.48035 | 27553 ft | 450 kts | 124° |
| 2026-05-05 18:06 | 42.95464 | 8.51860 | 27871 ft | 453 kts | 124° |
| 2026-05-05 18:06 | 42.94516 | 8.54401 | 28073 ft | 455 kts | 124° |
| 2026-05-05 18:06 | 42.92563 | 8.59552 | 28470 ft | 459 kts | 125° |
| 2026-05-05 18:06 | 42.91062 | 8.63406 | 28761 ft | 461 kts | 126° |
| 2026-05-05 18:07 | 42.89532 | 8.67266 | 29033 ft | 464 kts | 126° |
| 2026-05-05 18:07 | 42.87988 | 8.71131 | 29305 ft | 466 kts | 126° |
| 2026-05-05 18:07 | 42.86429 | 8.75021 | 29572 ft | 469 kts | 126° |
| 2026-05-05 18:07 | 42.84866 | 8.78932 | 29858 ft | 471 kts | 126° |
| 2026-05-05 18:08 | 42.83315 | 8.82825 | 30105 ft | 474 kts | 125° |
| 2026-05-05 18:08 | 42.81743 | 8.86782 | 30338 ft | 476 kts | 125° |
| 2026-05-05 18:08 | 42.80170 | 8.90748 | 30575 ft | 478 kts | 126° |
| 2026-05-05 18:08 | 42.78586 | 8.94743 | 30819 ft | 479 kts | 126° |
| 2026-05-05 18:09 | 42.77000 | 8.98729 | 31049 ft | 480 kts | 126° |
| 2026-05-05 18:09 | 42.75402 | 9.02725 | 31313 ft | 480 kts | 126° |
| 2026-05-05 18:09 | 42.73805 | 9.06705 | 31641 ft | 479 kts | 126° |
| 2026-05-05 18:09 | 42.72206 | 9.10688 | 31951 ft | 479 kts | 126° |
| 2026-05-05 18:10 | 42.70611 | 9.14656 | 32220 ft | 479 kts | 126° |
| 2026-05-05 18:10 | 42.69015 | 9.18631 | 32505 ft | 479 kts | 126° |
| 2026-05-05 18:10 | 42.67421 | 9.22599 | 32816 ft | 478 kts | 126° |
| 2026-05-05 18:10 | 42.65822 | 9.26566 | 32951 ft | 476 kts | 126° |
| 2026-05-05 18:11 | 42.64255 | 9.30474 | 32962 ft | 467 kts | 126° |
| 2026-05-05 18:11 | 42.61159 | 9.38155 | 32974 ft | 462 kts | 127° |
| 2026-05-05 18:12 | 42.58059 | 9.45776 | 32975 ft | 462 kts | 126° |
| 2026-05-05 18:12 | 42.55634 | 9.53978 | 32969 ft | 471 kts | 116° |
| 2026-05-05 18:13 | 42.53433 | 9.62349 | 32975 ft | 471 kts | 116° |
| 2026-05-05 18:13 | 42.51234 | 9.70660 | 32974 ft | 471 kts | 116° |
| 2026-05-05 18:14 | 42.49432 | 9.79305 | 32962 ft | 478 kts | 107° |
| 2026-05-05 18:14 | 42.47704 | 9.87837 | 32937 ft | 467 kts | 120° |
| 2026-05-05 18:15 | 42.44669 | 9.95497 | 32944 ft | 461 kts | 127° |
| 2026-05-05 18:15 | 42.41511 | 10.03064 | 32956 ft | 462 kts | 126° |
| 2026-05-05 18:16 | 42.38354 | 10.10632 | 32961 ft | 462 kts | 127° |
| 2026-05-05 18:16 | 42.35183 | 10.18201 | 32965 ft | 462 kts | 127° |
| 2026-05-05 18:17 | 42.32006 | 10.25751 | 32953 ft | 463 kts | 127° |
| 2026-05-05 18:17 | 42.28822 | 10.33312 | 32955 ft | 464 kts | 126° |
| 2026-05-05 18:18 | 42.25635 | 10.40893 | 32964 ft | 464 kts | 126° |
| 2026-05-05 18:18 | 42.22438 | 10.48468 | 32972 ft | 464 kts | 127° |
| 2026-05-05 18:19 | 42.19237 | 10.56025 | 32978 ft | 464 kts | 127° |
| 2026-05-05 18:19 | 42.16023 | 10.63583 | 32973 ft | 465 kts | 127° |
| 2026-05-05 18:20 | 42.12822 | 10.71093 | 32973 ft | 466 kts | 127° |
| 2026-05-05 18:20 | 42.09570 | 10.78708 | 32964 ft | 466 kts | 127° |
| 2026-05-05 18:21 | 42.06344 | 10.86223 | 32973 ft | 467 kts | 127° |
| 2026-05-05 18:21 | 42.03101 | 10.93784 | 32996 ft | 467 kts | 127° |
| 2026-05-05 18:22 | 41.99848 | 11.01340 | 33002 ft | 466 kts | 127° |
| 2026-05-05 18:22 | 41.96587 | 11.08877 | 33003 ft | 466 kts | 127° |
| 2026-05-05 18:23 | 41.93332 | 11.16404 | 32998 ft | 466 kts | 127° |
| 2026-05-05 18:23 | 41.90067 | 11.23925 | 33002 ft | 466 kts | 127° |
| 2026-05-05 18:24 | 41.87355 | 11.30165 | 33008 ft | 466 kts | 127° |
| 2026-05-05 18:24 | 41.84088 | 11.37670 | 32975 ft | 467 kts | 127° |
| 2026-05-05 18:25 | 41.80801 | 11.45187 | 32980 ft | 467 kts | 127° |
| 2026-05-05 18:25 | 41.77510 | 11.52693 | 33001 ft | 468 kts | 127° |
| 2026-05-05 18:26 | 41.74213 | 11.60197 | 33008 ft | 468 kts | 127° |
| 2026-05-05 18:26 | 41.70910 | 11.67704 | 33004 ft | 468 kts | 127° |
| 2026-05-05 18:27 | 41.67607 | 11.75200 | 33015 ft | 468 kts | 126° |
| 2026-05-05 18:27 | 41.64290 | 11.82697 | 33015 ft | 468 kts | 127° |
| 2026-05-05 18:28 | 41.59298 | 11.93936 | 33026 ft | 469 kts | 127° |
| 2026-05-05 18:28 | 41.55966 | 12.01417 | 33019 ft | 469 kts | 126° |
| 2026-05-05 18:29 | 41.52650 | 12.08843 | 33020 ft | 468 kts | 126° |
| 2026-05-05 18:29 | 41.49194 | 12.16168 | 33038 ft | 463 kts | 134° |
| 2026-05-05 18:30 | 41.44863 | 12.22400 | 33051 ft | 457 kts | 140° |
| 2026-05-05 18:30 | 41.40454 | 12.28479 | 32868 ft | 452 kts | 140° |
| 2026-05-05 18:31 | 41.38289 | 12.31469 | 32606 ft | 445 kts | 140° |
| 2026-05-05 18:31 | 41.36149 | 12.34421 | 32352 ft | 441 kts | 140° |
| 2026-05-05 18:31 | 41.34021 | 12.37349 | 32095 ft | 439 kts | 140° |
| 2026-05-05 18:31 | 41.31902 | 12.40259 | 31841 ft | 436 kts | 140° |
| 2026-05-05 18:32 | 41.29795 | 12.43148 | 31557 ft | 436 kts | 140° |
| 2026-05-05 18:32 | 41.27683 | 12.46042 | 31308 ft | 435 kts | 140° |
| 2026-05-05 18:32 | 41.25578 | 12.48927 | 31068 ft | 434 kts | 140° |
| 2026-05-05 18:32 | 41.23480 | 12.51802 | 30826 ft | 432 kts | 139° |
| 2026-05-05 18:33 | 41.21395 | 12.54659 | 30582 ft | 430 kts | 140° |
| 2026-05-05 18:33 | 41.19313 | 12.57507 | 30342 ft | 429 kts | 140° |
| 2026-05-05 18:33 | 41.17238 | 12.60343 | 30098 ft | 427 kts | 140° |
| 2026-05-05 18:33 | 41.15176 | 12.63160 | 29818 ft | 425 kts | 140° |
| 2026-05-05 18:34 | 41.13118 | 12.65964 | 29531 ft | 423 kts | 140° |
| 2026-05-05 18:34 | 41.11091 | 12.68719 | 29264 ft | 421 kts | 139° |
| 2026-05-05 18:34 | 41.09032 | 12.71522 | 28988 ft | 418 kts | 139° |
| 2026-05-05 18:34 | 41.07033 | 12.74242 | 28723 ft | 416 kts | 139° |
| 2026-05-05 18:35 | 41.05015 | 12.76985 | 28438 ft | 415 kts | 139° |
| 2026-05-05 18:35 | 41.03005 | 12.79721 | 28172 ft | 415 kts | 139° |
| 2026-05-05 18:35 | 41.00992 | 12.82456 | 27909 ft | 414 kts | 139° |
| 2026-05-05 18:35 | 40.98986 | 12.85177 | 27650 ft | 412 kts | 139° |
| 2026-05-05 18:36 | 40.96989 | 12.87877 | 27395 ft | 409 kts | 139° |
| 2026-05-05 18:36 | 40.95000 | 12.90559 | 27137 ft | 407 kts | 139° |
| 2026-05-05 18:36 | 40.93061 | 12.93280 | 26887 ft | 407 kts | 133° |
| 2026-05-05 18:36 | 40.91461 | 12.96377 | 26643 ft | 409 kts | 121° |
| 2026-05-05 18:37 | 40.90312 | 12.99819 | 26389 ft | 410 kts | 110° |
| 2026-05-05 18:37 | 40.89533 | 13.03423 | 26119 ft | 406 kts | 107° |
| 2026-05-05 18:37 | 40.88776 | 13.07006 | 25678 ft | 404 kts | 107° |
| 2026-05-05 18:37 | 40.88013 | 13.10571 | 25215 ft | 402 kts | 107° |
| 2026-05-05 18:38 | 40.87249 | 13.14122 | 24731 ft | 401 kts | 107° |
| 2026-05-05 18:38 | 40.86484 | 13.17655 | 24256 ft | 400 kts | 107° |
| 2026-05-05 18:38 | 40.85720 | 13.21187 | 23788 ft | 399 kts | 107° |
| 2026-05-05 18:38 | 40.84958 | 13.24714 | 23248 ft | 399 kts | 107° |
| 2026-05-05 18:39 | 40.84198 | 13.28223 | 22784 ft | 396 kts | 107° |
| 2026-05-05 18:39 | 40.83447 | 13.31696 | 22339 ft | 393 kts | 107° |
| 2026-05-05 18:39 | 40.82707 | 13.35114 | 21889 ft | 390 kts | 107° |
| 2026-05-05 18:39 | 40.81964 | 13.38538 | 21442 ft | 387 kts | 108° |
| 2026-05-05 18:40 | 40.81221 | 13.41947 | 21000 ft | 385 kts | 108° |
| 2026-05-05 18:40 | 40.80481 | 13.45336 | 20563 ft | 383 kts | 108° |
| 2026-05-05 18:40 | 40.79742 | 13.48706 | 20121 ft | 381 kts | 108° |
| 2026-05-05 18:40 | 40.79006 | 13.52059 | 19685 ft | 379 kts | 108° |
| 2026-05-05 18:41 | 40.78273 | 13.55396 | 19250 ft | 378 kts | 108° |
| 2026-05-05 18:41 | 40.77547 | 13.58715 | 18825 ft | 377 kts | 108° |
| 2026-05-05 18:41 | 40.76820 | 13.62032 | 18391 ft | 376 kts | 108° |
| 2026-05-05 18:41 | 40.76093 | 13.65338 | 17926 ft | 374 kts | 108° |
| 2026-05-05 18:42 | 40.75497 | 13.68667 | 17495 ft | 373 kts | 98° |
| 2026-05-05 18:42 | 40.75494 | 13.72072 | 17080 ft | 372 kts | 82° |
| 2026-05-05 18:42 | 40.76134 | 13.75343 | 16780 ft | 365 kts | 67° |
| 2026-05-05 18:42 | 40.77314 | 13.78256 | 16514 ft | 358 kts | 56° |
| 2026-05-05 18:43 | 40.78632 | 13.81010 | 16239 ft | 352 kts | 56° |
| 2026-05-05 18:43 | 40.79925 | 13.83729 | 15968 ft | 347 kts | 57° |
| 2026-05-05 18:43 | 40.81193 | 13.86405 | 15700 ft | 342 kts | 57° |
| 2026-05-05 18:43 | 40.82424 | 13.89011 | 15545 ft | 333 kts | 56° |
| 2026-05-05 18:44 | 40.83650 | 13.91608 | 15416 ft | 324 kts | 56° |
| 2026-05-05 18:44 | 40.84806 | 13.94065 | 15295 ft | 315 kts | 57° |
| 2026-05-05 18:44 | 40.85933 | 13.96507 | 15172 ft | 307 kts | 57° |
| 2026-05-05 18:44 | 40.87019 | 13.98895 | 15031 ft | 300 kts | 57° |
| 2026-05-05 18:45 | 40.88081 | 14.01246 | 14781 ft | 297 kts | 57° |
| 2026-05-05 18:45 | 40.89133 | 14.03581 | 14530 ft | 295 kts | 57° |
| 2026-05-05 18:45 | 40.90181 | 14.05904 | 14276 ft | 293 kts | 57° |
| 2026-05-05 18:45 | 40.91218 | 14.08198 | 14075 ft | 289 kts | 57° |
| 2026-05-05 18:46 | 40.92245 | 14.10467 | 13880 ft | 286 kts | 57° |
| 2026-05-05 18:46 | 40.93267 | 14.12722 | 13684 ft | 285 kts | 57° |
| 2026-05-05 18:46 | 40.94284 | 14.14970 | 13492 ft | 284 kts | 57° |
| 2026-05-05 18:46 | 40.95297 | 14.17212 | 13300 ft | 283 kts | 57° |
| 2026-05-05 18:47 | 40.96307 | 14.19443 | 13120 ft | 283 kts | 57° |
| 2026-05-05 18:47 | 40.97315 | 14.21673 | 12939 ft | 282 kts | 58° |
| 2026-05-05 18:47 | 40.98315 | 14.23893 | 12737 ft | 279 kts | 58° |
| 2026-05-05 18:47 | 40.99303 | 14.26091 | 12568 ft | 278 kts | 58° |
| 2026-05-05 18:48 | 41.00289 | 14.28288 | 12383 ft | 277 kts | 58° |
| 2026-05-05 18:48 | 41.01272 | 14.30477 | 12180 ft | 276 kts | 58° |
| 2026-05-05 18:48 | 41.02255 | 14.32650 | 11877 ft | 274 kts | 58° |
| 2026-05-05 18:48 | 41.03228 | 14.34799 | 11648 ft | 270 kts | 58° |
| 2026-05-05 18:49 | 41.04187 | 14.36915 | 11401 ft | 266 kts | 58° |
| 2026-05-05 18:49 | 41.05134 | 14.39016 | 11114 ft | 265 kts | 58° |
| 2026-05-05 18:49 | 41.06074 | 14.41108 | 10798 ft | 264 kts | 58° |
| 2026-05-05 18:49 | 41.07009 | 14.43190 | 10513 ft | 263 kts | 58° |
| 2026-05-05 18:50 | 41.07938 | 14.45238 | 10230 ft | 261 kts | 57° |
| 2026-05-05 18:50 | 41.08895 | 14.47273 | 9957 ft | 259 kts | 56° |
| 2026-05-05 18:50 | 41.09855 | 14.49283 | 9623 ft | 257 kts | 56° |
| 2026-05-05 18:50 | 41.10810 | 14.51282 | 9301 ft | 256 kts | 56° |
| 2026-05-05 18:51 | 41.11759 | 14.53273 | 8972 ft | 255 kts | 56° |
| 2026-05-05 18:51 | 41.12703 | 14.55255 | 8647 ft | 253 kts | 57° |
| 2026-05-05 18:51 | 41.13638 | 14.57224 | 8336 ft | 252 kts | 57° |
| 2026-05-05 18:51 | 41.14559 | 14.59197 | 7988 ft | 251 kts | 61° |
| 2026-05-05 18:52 | 41.15052 | 14.61393 | 7723 ft | 247 kts | 88° |
| 2026-05-05 18:52 | 41.14807 | 14.63574 | 7589 ft | 234 kts | 114° |
| 2026-05-05 18:52 | 41.13961 | 14.65325 | 7443 ft | 221 kts | 138° |
| 2026-05-05 18:52 | 41.12741 | 14.66420 | 7296 ft | 206 kts | 160° |
| 2026-05-05 18:53 | 41.11373 | 14.66811 | 7045 ft | 198 kts | 182° |
| 2026-05-05 18:53 | 41.10019 | 14.66698 | 7001 ft | 191 kts | 187° |
| 2026-05-05 18:53 | 41.08702 | 14.66582 | 7006 ft | 189 kts | 187° |
| 2026-05-05 18:53 | 41.07408 | 14.66361 | 7006 ft | 186 kts | 199° |
| 2026-05-05 18:54 | 41.06241 | 14.65672 | 7009 ft | 184 kts | 216° |
| 2026-05-05 18:54 | 41.05326 | 14.64498 | 6787 ft | 182 kts | 234° |
| 2026-05-05 18:54 | 41.04596 | 14.63129 | 6538 ft | 181 kts | 238° |
| 2026-05-05 18:54 | 41.03920 | 14.61734 | 6278 ft | 180 kts | 239° |
| 2026-05-05 18:55 | 41.03259 | 14.60332 | 6008 ft | 179 kts | 239° |
| 2026-05-05 18:55 | 41.02606 | 14.58937 | 5739 ft | 178 kts | 239° |
| 2026-05-05 18:55 | 41.01952 | 14.57539 | 5479 ft | 178 kts | 239° |
| 2026-05-05 18:55 | 41.01304 | 14.56151 | 5224 ft | 177 kts | 239° |
| 2026-05-05 18:56 | 41.00657 | 14.54766 | 4962 ft | 176 kts | 238° |
| 2026-05-05 18:56 | 41.00013 | 14.53388 | 4698 ft | 175 kts | 238° |
| 2026-05-05 18:56 | 40.99374 | 14.52023 | 4438 ft | 174 kts | 238° |
| 2026-05-05 18:56 | 40.98737 | 14.50661 | 4182 ft | 174 kts | 238° |
| 2026-05-05 18:57 | 40.98099 | 14.49297 | 3917 ft | 174 kts | 237° |
| 2026-05-05 18:57 | 40.97463 | 14.47939 | 3661 ft | 173 kts | 237° |
| 2026-05-05 18:57 | 40.96832 | 14.46592 | 3410 ft | 172 kts | 237° |
| 2026-05-05 18:57 | 40.96209 | 14.45262 | 3156 ft | 172 kts | 237° |
| 2026-05-05 18:58 | 40.95578 | 14.43918 | 2904 ft | 172 kts | 237° |
| 2026-05-05 18:58 | 40.94949 | 14.42577 | 2651 ft | 171 kts | 237° |
| 2026-05-05 18:58 | 40.94325 | 14.41247 | 2389 ft | 167 kts | 237° |
| 2026-05-05 18:58 | 40.93743 | 14.40007 | 2159 ft | 151 kts | 237° |
| 2026-05-05 18:59 | 40.93207 | 14.38866 | 1942 ft | 143 kts | 238° |
| 2026-05-05 18:59 | 40.92686 | 14.37758 | 1724 ft | 141 kts | 238° |
| 2026-05-05 18:59 | 40.92170 | 14.36658 | 1507 ft | 141 kts | 239° |
| 2026-05-05 18:59 | 40.91649 | 14.35549 | 1283 ft | 142 kts | 239° |
| 2026-05-05 19:00 | 40.91124 | 14.34434 | 1068 ft | 144 kts | 240° |
| 2026-05-05 19:00 | 40.90594 | 14.33309 | 849 ft | 144 kts | 239° |
| 2026-05-05 19:00 | 40.90066 | 14.32187 | 649 ft | 143 kts | 239° |
| 2026-05-05 19:00 | 40.89540 | 14.31075 | 432 ft | 142 kts | 239° |
| 2026-05-05 19:01 | 40.89025 | 14.29973 | 253 ft | 140 kts | 239° |
| 2026-05-05 19:01 | 40.88579 | 14.29021 | 269 ft | 98 kts | 238° |
| 2026-05-05 19:01 | 40.88310 | 14.28450 | 282 ft | 49 kts | 238° |
| 2026-05-05 19:01 | 40.88199 | 14.28221 | 287 ft | 21 kts | 237° |
| 2026-05-05 19:02 | 40.88140 | 14.28092 | 292 ft | 10 kts | 238° |
| 2026-05-05 19:02 | 40.88105 | 14.28040 | 293 ft | 6 kts | 199° |
| 2026-05-05 19:02 | 40.88074 | 14.28046 | 292 ft | 4 kts | 161° |
| 2026-05-05 19:02 | 40.88052 | 14.28061 | 297 ft | 5 kts | 149° |
| 2026-05-05 19:03 | 40.88013 | 14.28092 | 294 ft | 6 kts | 149° |
| 2026-05-05 19:03 | 40.87979 | 14.28108 | 295 ft | 4 kts | 170° |
| 2026-05-05 19:03 | 40.87955 | 14.28104 | 293 ft | 2 kts | 201° |
| 2026-05-05 19:03 | 40.87949 | 14.28098 | 296 ft | 0 kts | 216° |
| 2026-05-05 19:04 | 40.87945 | 14.28093 | 295 ft | 2 kts | 223° |
| 2026-05-05 19:04 | 40.87925 | 14.28083 | 294 ft | 4 kts | 184° |
| 2026-05-05 19:04 | 40.87897 | 14.28100 | 298 ft | 5 kts | 144° |
| 2026-05-05 19:04 | 40.87875 | 14.28123 | 294 ft | 3 kts | 141° |
| 2026-05-05 19:05 | 40.87868 | 14.28132 | 296 ft | 0 kts | 140° |